Time;durP1;ratioP1;P1;durP2;ratioP2;P2;SDS_P1;SDS_P2;PMS_P1;PMS_P2;Temp;Humidity;BMP_temperature;BMP_pressure;BME280_temperature;BME280_humidity;BME280_pressure;Samples;Min_cycle;Max_cycle;Signal;HPM_P1;HPM_P2
2022/06/03 00:02:21;;;;;;;5.65;2.78;;;;;;;11.15;83.27;97425.38;5067297;28;19974;-63
2022/06/03 00:05:12;;;;;;;5.03;3.03;;;;;;;11.20;83.12;97430.00;5068112;28;20044;-63
2022/06/03 00:08:07;;;;;;;6.20;3.20;;;;;;;11.43;81.86;97426.19;5066237;28;20063;-63
2022/06/03 00:11:24;;;;;;;6.78;2.72;;;;;;;11.39;81.67;97410.69;5057497;28;20037;-63
2022/06/03 00:14:09;;;;;;;4.93;3.20;;;;;;;11.10;82.99;97408.22;5054239;28;20064;-63
2022/06/03 00:16:38;;;;;;;5.85;3.15;;;;;;;10.84;84.34;97411.44;5066325;28;20059;-63
2022/06/03 00:19:11;;;;;;;4.63;3.05;;;;;;;10.86;84.85;97403.91;5067375;28;20073;-63
2022/06/03 00:21:56;;;;;;;4.80;2.83;;;;;;;11.05;84.25;97400.84;5066900;28;20037;-63
2022/06/03 00:24:28;;;;;;;4.78;3.20;;;;;;;11.09;83.75;97410.13;5066728;28;20045;-63
2022/06/03 00:27:07;;;;;;;6.03;2.75;;;;;;;11.21;83.09;97404.56;5066207;28;20044;-63
2022/06/03 00:29:53;;;;;;;5.03;3.28;;;;;;;11.34;83.17;97410.63;5065408;28;20054;-63
2022/06/03 00:32:42;;;;;;;4.95;3.05;;;;;;;11.37;82.85;97408.25;5065904;28;20101;-63
2022/06/03 00:35:20;;;;;;;4.10;2.65;;;;;;;11.28;82.85;97409.78;5067249;28;20047;-63
2022/06/03 00:38:09;;;;;;;6.90;3.15;;;;;;;10.87;84.27;97402.03;5065609;28;20053;-63
2022/06/03 00:41:06;;;;;;;6.00;3.20;;;;;;;10.80;84.87;97397.59;5055680;28;20052;-63
2022/06/03 00:43:58;;;;;;;4.90;3.53;;;;;;;10.88;84.68;97406.38;5067210;28;20578;-63
2022/06/03 00:46:45;;;;;;;4.30;2.88;;;;;;;10.99;84.21;97405.41;5066130;28;20108;-63
2022/06/03 00:49:49;;;;;;;5.18;3.03;;;;;;;11.17;83.29;97406.16;5066393;28;20588;-63
2022/06/03 00:52:18;;;;;;;4.97;2.92;;;;;;;10.95;83.43;97408.88;5062679;28;20504;-63
2022/06/03 00:55:23;;;;;;;5.25;3.20;;;;;;;10.63;85.16;97402.28;5065556;28;20029;-63
2022/06/03 00:58:08;;;;;;;4.65;3.17;;;;;;;10.42;86.37;97399.25;5065282;28;20111;-63
2022/06/03 01:01:08;;;;;;;5.30;3.35;;;;;;;10.54;86.32;97404.59;5055151;28;20040;-63
2022/06/03 01:03:40;;;;;;;4.32;3.10;;;;;;;10.69;85.34;97395.03;5065650;28;20041;-63
2022/06/03 01:06:37;;;;;;;4.95;3.60;;;;;;;10.66;85.55;97401.78;5066265;28;20089;-63
2022/06/03 01:09:13;;;;;;;7.22;3.70;;;;;;;10.77;85.82;97406.22;5064999;28;20036;-63
2022/06/03 01:12:13;;;;;;;4.35;3.15;;;;;;;10.91;84.96;97398.53;5065834;28;20041;-63
2022/06/03 01:15:09;;;;;;;5.47;3.30;;;;;;;11.03;84.57;97397.59;5066075;28;20124;-63
2022/06/03 01:17:54;;;;;;;5.45;3.30;;;;;;;11.04;84.14;97393.81;5065653;28;20036;-63
2022/06/03 01:20:45;;;;;;;5.20;3.40;;;;;;;11.01;84.58;97413.28;5062797;28;20067;-63
2022/06/03 01:23:38;;;;;;;6.50;3.67;;;;;;;10.98;84.64;97411.88;5065043;28;20033;-63
2022/06/03 01:26:23;;;;;;;5.05;3.40;;;;;;;10.91;85.54;97412.09;5064886;28;20067;-63
2022/06/03 01:28:52;;;;;;;5.95;3.60;;;;;;;10.95;84.93;97408.88;5065489;28;20041;-63
2022/06/03 01:32:04;;;;;;;5.07;3.42;;;;;;;11.07;84.24;97406.84;5065183;28;20842;-63
2022/06/03 01:35:06;;;;;;;5.35;3.28;;;;;;;11.18;83.80;97414.00;5064761;28;20070;-63
2022/06/03 01:37:47;;;;;;;5.25;3.30;;;;;;;11.13;83.99;97416.66;5064864;28;20040;-63
2022/06/03 01:40:48;;;;;;;6.03;3.40;;;;;;;11.16;83.55;97420.75;5062084;28;20511;-63
2022/06/03 01:43:23;;;;;;;6.63;3.83;;;;;;;11.26;82.88;97420.88;5061221;28;20478;-63
2022/06/03 01:46:23;;;;;;;4.03;2.97;;;;;;;11.20;83.67;97413.75;5052378;28;20032;-63
2022/06/03 01:48:56;;;;;;;5.18;3.50;;;;;;;11.21;83.53;97412.69;5072493;28;20054;-63
2022/06/03 01:51:41;;;;;;;7.18;3.60;;;;;;;11.18;83.60;97416.72;5072763;28;20074;-63
2022/06/03 01:54:33;;;;;;;4.40;2.97;;;;;;;11.15;83.75;97421.84;5064800;28;20581;-63
2022/06/03 01:57:28;;;;;;;6.05;3.55;;;;;;;11.11;83.99;97418.81;5064701;28;20040;-63
2022/06/03 02:00:03;;;;;;;6.05;3.40;;;;;;;11.00;84.53;97412.47;5064690;28;20044;-63
2022/06/03 02:03:00;;;;;;;5.28;3.30;;;;;;;10.91;85.23;97414.78;5056455;28;20573;-63
2022/06/03 02:05:26;;;;;;;6.88;3.50;;;;;;;10.96;85.06;97410.50;5065038;28;20036;-63
2022/06/03 02:08:18;;;;;;;5.65;3.80;;;;;;;10.90;85.55;97410.47;5063163;28;20556;-63
2022/06/03 02:11:12;;;;;;;5.55;3.70;;;;;;;10.87;85.56;97402.03;5044180;28;20049;-63
2022/06/03 02:14:21;;;;;;;6.30;3.88;;;;;;;10.83;86.11;97387.34;5053784;28;20507;-63
2022/06/03 02:17:14;;;;;;;5.93;3.55;;;;;;;10.69;86.79;97395.84;5062856;28;20060;-63
2022/06/03 02:20:17;;;;;;;5.85;4.10;;;;;;;10.63;87.72;97400.41;5063347;28;20048;-63
2022/06/03 02:23:07;;;;;;;7.03;4.35;;;;;;;10.62;87.70;97397.94;5064517;28;20416;-63
2022/06/03 02:26:03;;;;;;;6.95;3.92;;;;;;;10.47;88.35;97403.97;5063470;28;20072;-63
2022/06/03 02:28:36;;;;;;;5.00;3.55;;;;;;;10.46;88.07;97394.22;5052297;28;20048;-63
2022/06/03 02:31:30;;;;;;;5.45;4.38;;;;;;;10.44;88.04;97397.16;5064471;28;20067;-63
2022/06/03 02:34:02;;;;;;;7.47;4.43;;;;;;;10.49;87.76;97381.00;5065261;28;20080;-63
2022/06/03 02:36:48;;;;;;;6.00;4.15;;;;;;;10.45;88.20;97392.56;5054440;28;20044;-63
2022/06/03 02:39:34;;;;;;;6.03;4.28;;;;;;;10.48;88.65;97389.34;5061150;28;20044;-63
2022/06/03 02:42:06;;;;;;;5.63;3.97;;;;;;;10.59;88.10;97390.31;5062118;28;20044;-63
2022/06/03 02:44:41;;;;;;;5.65;4.25;;;;;;;10.62;88.23;97387.91;5064383;28;20040;-63
2022/06/03 02:47:35;;;;;;;6.85;4.28;;;;;;;10.70;87.83;97383.97;5063892;28;20049;-63
2022/06/03 02:50:14;;;;;;;6.00;4.40;;;;;;;10.75;87.51;97383.19;5066931;28;20063;-63
2022/06/03 02:53:09;;;;;;;5.18;4.20;;;;;;;10.58;87.96;97389.47;5064637;28;20677;-63
2022/06/03 02:56:13;;;;;;;7.25;4.53;;;;;;;10.49;88.97;97401.81;5062783;28;20109;-63
2022/06/03 02:59:11;;;;;;;7.35;4.78;;;;;;;10.51;89.75;97397.78;5063293;28;20048;-64
2022/06/03 03:02:04;;;;;;;6.53;4.43;;;;;;;10.56;89.67;97407.03;5063105;28;20302;-63
2022/06/03 03:04:52;;;;;;;7.85;4.68;;;;;;;10.50;89.54;97409.69;5065079;28;20048;-63
2022/06/03 03:07:34;;;;;;;6.68;4.60;;;;;;;10.53;91.20;97405.66;5059784;28;20052;-63
2022/06/03 03:10:19;;;;;;;5.97;4.13;;;;;;;10.54;88.69;97408.13;5055108;28;20476;-63
2022/06/03 03:12:54;;;;;;;8.75;4.47;;;;;;;10.22;90.85;97402.50;5063496;28;20045;-63
2022/06/03 03:15:49;;;;;;;8.05;4.43;;;;;;;10.07;91.57;97403.13;5062641;28;20047;-63
2022/06/03 03:18:37;;;;;;;7.38;4.65;;;;;;;9.94;92.35;97393.44;5066659;28;20132;-63
2022/06/03 03:21:21;;;;;;;8.57;5.00;;;;;;;9.97;92.49;97395.66;5066280;28;20048;-63
2022/06/03 03:24:18;;;;;;;7.10;4.88;;;;;;;10.24;91.79;97398.50;5046844;28;20045;-63
2022/06/03 03:26:59;;;;;;;6.88;4.93;;;;;;;10.18;90.92;97398.66;5057525;28;20036;-63
2022/06/03 03:29:47;;;;;;;6.73;4.27;;;;;;;10.12;92.23;97393.19;5064244;28;20109;-63
2022/06/03 03:32:28;;;;;;;6.18;4.72;;;;;;;10.18;92.17;97383.25;5064338;28;20527;-63
2022/06/03 03:34:58;;;;;;;7.70;5.28;;;;;;;10.28;92.28;97391.50;5079403;28;20045;-63
2022/06/03 03:37:43;;;;;;;7.43;4.68;;;;;;;10.39;91.52;97388.94;5065356;28;20044;-63
2022/06/03 03:40:47;;;;;;;7.60;5.25;;;;;;;10.52;91.02;97402.16;5062787;28;20441;-63
2022/06/03 03:43:50;;;;;;;6.57;5.18;;;;;;;10.61;90.01;97386.28;5071642;28;20456;-63
2022/06/03 03:46:54;;;;;;;7.50;4.88;;;;;;;10.74;90.35;97385.09;5063270;28;20039;-63
2022/06/03 03:49:39;;;;;;;8.88;4.88;;;;;;;10.62;89.86;97378.97;5066761;28;20041;-63
2022/06/03 03:52:33;;;;;;;5.70;4.35;;;;;;;10.42;90.19;97383.03;5067077;28;20037;-63
2022/06/03 03:55:36;;;;;;;6.85;4.95;;;;;;;10.25;91.14;97380.38;5066249;28;20036;-63
2022/06/03 03:58:21;;;;;;;7.40;5.43;;;;;;;10.26;92.57;97385.53;5061019;28;20056;-63
2022/06/03 04:01:06;;;;;;;6.93;5.65;;;;;;;10.31;92.29;97390.19;5066785;28;20535;-63
2022/06/03 04:04:00;;;;;;;8.70;5.53;;;;;;;10.37;92.29;97388.38;5066475;28;20468;-63
2022/06/03 04:06:29;;;;;;;8.55;5.68;;;;;;;10.54;92.48;97385.63;5067345;28;20135;-63
2022/06/03 04:09:33;;;;;;;8.15;5.57;;;;;;;10.67;91.47;97381.75;5067622;28;20041;-63
2022/06/03 04:12:33;;;;;;;7.35;5.30;;;;;;;10.86;90.67;97389.53;5062391;28;20048;-63
2022/06/03 04:15:28;;;;;;;9.68;5.10;;;;;;;10.99;90.09;97380.22;5062149;28;20655;-63
2022/06/03 04:18:12;;;;;;;6.75;5.35;;;;;;;10.95;89.31;97371.78;5078836;28;20114;-63
2022/06/03 04:20:58;;;;;;;7.78;5.13;;;;;;;10.92;89.78;97372.28;5063009;28;20044;-63
2022/06/03 04:23:42;;;;;;;14.07;5.60;;;;;;;10.95;90.12;97381.78;5064647;28;20056;-63
2022/06/03 04:26:21;;;;;;;7.10;5.15;;;;;;;10.96;90.42;97375.28;5054345;28;20048;-63
2022/06/03 04:29:35;;;;;;;7.10;5.07;;;;;;;10.88;90.99;97373.88;5064647;28;20044;-63
2022/06/03 04:32:04;;;;;;;7.72;5.28;;;;;;;11.03;90.28;97376.72;5092232;28;20055;-63
2022/06/03 04:35:03;;;;;;;11.40;5.75;;;;;;;11.12;89.84;97373.56;5089345;28;20052;-63
2022/06/03 04:37:42;;;;;;;7.30;5.35;;;;;;;11.21;89.81;97377.47;5081864;28;20056;-64
2022/06/03 04:40:43;;;;;;;10.57;5.10;;;;;;;11.31;89.77;97366.72;5063675;28;20052;-64
2022/06/03 04:43:30;;;;;;;9.40;6.13;;;;;;;11.36;89.99;97367.84;5060557;28;20049;-64
2022/06/03 04:46:34;;;;;;;7.78;5.60;;;;;;;11.45;89.76;97360.84;5059959;28;20470;-65
2022/06/03 04:49:33;;;;;;;10.10;5.40;;;;;;;11.64;89.43;97368.63;5064541;28;20053;-64
2022/06/03 04:52:27;;;;;;;7.90;5.35;;;;;;;11.80;88.92;97374.97;5064941;28;20041;-64
2022/06/03 04:55:13;;;;;;;7.28;5.28;;;;;;;11.95;89.04;97375.06;5067949;28;20085;-64
2022/06/03 04:58:04;;;;;;;9.23;5.93;;;;;;;12.22;88.15;97367.94;5053762;28;20048;-64
2022/06/03 05:01:00;;;;;;;6.85;5.60;;;;;;;12.43;87.48;97368.88;5058973;28;20042;-64
2022/06/03 05:03:33;;;;;;;10.80;6.95;;;;;;;12.65;87.04;97367.06;5060322;28;20094;-64
2022/06/03 05:06:54;;;;;;;7.60;5.50;;;;;;;12.81;86.80;97373.38;5059929;28;20047;-65
2022/06/03 05:09:54;;;;;;;8.90;5.80;;;;;;;12.87;86.63;97377.75;5058658;28;20041;-64
2022/06/03 05:12:33;;;;;;;9.45;6.20;;;;;;;12.86;87.38;97374.22;5067996;28;20048;-64
2022/06/03 05:15:16;;;;;;;7.57;5.47;;;;;;;12.91;87.42;97383.47;5059689;28;20489;-65
2022/06/03 05:17:51;;;;;;;6.55;5.38;;;;;;;12.96;86.73;97378.03;5056679;28;20072;-65
2022/06/03 05:20:45;;;;;;;10.27;6.22;;;;;;;13.05;85.89;97368.25;5062167;28;20044;-65
2022/06/03 05:23:41;;;;;;;9.75;5.53;;;;;;;13.11;85.65;97361.78;5065541;28;20044;-65
2022/06/03 05:26:40;;;;;;;6.82;5.50;;;;;;;13.12;87.03;97368.03;5077978;28;20044;-64
2022/06/03 05:29:32;;;;;;;7.63;5.75;;;;;;;13.30;87.15;97365.88;5066698;28;20063;-65
2022/06/03 05:32:35;;;;;;;8.10;5.15;;;;;;;13.48;86.19;97361.84;5051186;28;20044;-65
2022/06/03 05:35:11;;;;;;;7.68;5.57;;;;;;;13.73;85.03;97358.31;5073189;28;20050;-65
2022/06/03 05:37:59;;;;;;;6.40;5.15;;;;;;;14.01;83.75;97361.53;5067985;28;20048;-65
2022/06/03 05:40:44;;;;;;;9.27;5.55;;;;;;;14.29;82.07;97363.94;5059818;28;20877;-65
2022/06/03 05:43:20;;;;;;;12.73;5.65;;;;;;;14.51;82.31;97377.22;5061404;28;20049;-65
2022/06/03 05:46:09;;;;;;;9.18;5.38;;;;;;;14.66;80.88;97370.91;5065307;28;20822;-65
2022/06/03 05:48:52;;;;;;;7.80;5.53;;;;;;;14.79;79.01;97366.81;5062351;28;20059;-65
2022/06/03 05:51:28;;;;;;;8.25;5.30;;;;;;;14.99;79.02;97362.31;5059999;28;20179;-65
2022/06/03 05:53:55;;;;;;;8.25;5.57;;;;;;;15.14;79.01;97361.41;5062084;28;20052;-65
2022/06/03 05:56:27;;;;;;;11.18;5.45;;;;;;;15.28;78.30;97361.63;5055595;28;20470;-65
2022/06/03 05:58:59;;;;;;;6.88;5.65;;;;;;;15.52;79.42;97358.16;5058183;28;20052;-65
2022/06/03 06:01:41;;;;;;;8.98;5.20;;;;;;;15.67;78.10;97351.75;5052509;28;20036;-65
2022/06/03 06:04:26;;;;;;;7.47;4.72;;;;;;;15.88;77.50;97353.50;5060159;28;20054;-65
2022/06/03 06:07:31;;;;;;;6.35;4.97;;;;;;;16.07;76.39;97351.69;5055317;28;20036;-65
2022/06/03 06:10:19;;;;;;;7.90;4.72;;;;;;;16.34;75.82;97349.53;5063734;28;20054;-65
2022/06/03 06:12:54;;;;;;;9.15;5.05;;;;;;;16.55;75.25;97341.09;5067790;28;20098;-64
2022/06/03 06:15:23;;;;;;;7.43;4.40;;;;;;;16.67;73.97;97349.69;5063168;28;20507;-65
2022/06/03 06:18:00;;;;;;;7.00;4.82;;;;;;;16.86;74.22;97343.44;5075088;28;20048;-65
2022/06/03 06:20:44;;;;;;;6.97;5.18;;;;;;;17.00;73.33;97338.06;5059618;28;20048;-65
2022/06/03 06:23:36;;;;;;;6.15;4.85;;;;;;;17.17;74.17;97337.56;5056354;28;20052;-65
2022/06/03 06:26:48;;;;;;;7.72;4.65;;;;;;;17.39;72.46;97338.88;5059191;28;20044;-65
2022/06/03 06:29:36;;;;;;;5.63;4.20;;;;;;;17.57;71.31;97352.84;5059196;28;20510;-66
2022/06/03 06:32:30;;;;;;;7.10;4.43;;;;;;;17.78;70.45;97362.34;5057040;28;20064;-63
2022/06/03 06:35:35;;;;;;;9.13;4.75;;;;;;;18.01;69.72;97348.81;5049248;28;20530;-64
2022/06/03 06:38:34;;;;;;;6.85;4.53;;;;;;;18.17;69.40;97363.06;5062107;28;20061;-65
2022/06/03 06:41:35;;;;;;;21.13;4.90;;;;;;;18.35;69.06;97354.25;5060719;28;20485;-65
2022/06/03 06:44:16;;;;;;;5.53;4.28;;;;;;;18.35;69.25;97354.25;5055846;28;20110;-65
2022/06/03 06:46:54;;;;;;;6.37;4.07;;;;;;;18.35;69.67;97354.25;5058062;28;20047;-65
2022/06/03 06:49:30;;;;;;;7.15;4.47;;;;;;;18.45;68.08;97354.06;5060506;28;20116;-65
2022/06/03 06:52:03;;;;;;;6.72;3.33;;;;;;;18.55;67.76;97351.13;5066863;28;20044;-64
2022/06/03 06:55:08;;;;;;;5.18;3.33;;;;;;;18.58;67.46;97347.75;5072839;28;20048;-65
2022/06/03 06:57:42;;;;;;;10.30;4.40;;;;;;;18.69;66.61;97344.81;5062239;28;20114;-65
2022/06/03 07:00:28;;;;;;;5.80;3.65;;;;;;;18.81;67.40;97336.88;5057122;28;20561;-65
2022/06/03 07:03:09;;;;;;;7.80;4.43;;;;;;;18.93;67.03;97332.78;5060401;28;20075;-64
2022/06/03 07:05:50;;;;;;;;;;;;;;;19.03;66.77;97334.47;5059268;28;20048;-65
2022/06/03 07:08:21;;;;;;;5.70;3.80;;;;;;;19.08;65.31;97337.13;5066540;28;19920;-65
2022/06/03 07:11:14;;;;;;;8.57;4.20;;;;;;;19.16;65.34;97341.91;5061736;28;20037;-65
2022/06/03 07:13:51;;;;;;;7.05;3.90;;;;;;;19.34;66.69;97331.06;5060615;28;20431;-64
2022/06/03 07:19:47;;;;;;;6.97;4.03;;;;;;;19.40;65.17;97329.00;5078601;28;20044;-65
2022/06/03 07:22:25;;;;;;;9.23;3.88;;;;;;;19.55;64.54;97327.81;5055479;28;20051;-65
2022/06/03 07:25:02;;;;;;;6.63;3.70;;;;;;;19.69;64.17;97325.84;5065182;28;20079;-65
2022/06/03 07:27:45;;;;;;;6.28;4.20;;;;;;;19.87;63.97;97317.69;5061913;28;20045;-65
2022/06/03 07:30:24;;;;;;;5.43;3.40;;;;;;;20.19;62.57;97320.47;5064522;28;20044;-65
2022/06/03 07:33:06;;;;;;;7.00;3.58;;;;;;;20.41;62.15;97325.06;5059711;28;20041;-65
2022/06/03 07:35:54;;;;;;;5.85;3.30;;;;;;;20.60;60.80;97313.81;5063924;28;20041;-64
2022/06/03 07:38:37;;;;;;;4.68;3.17;;;;;;;20.66;61.10;97318.03;5074573;28;20461;-65
2022/06/03 07:41:11;;;;;;;4.78;3.30;;;;;;;20.73;61.07;97320.31;5068518;28;20699;-66
2022/06/03 07:43:42;;;;;;;4.57;2.50;;;;;;;21.07;58.43;97315.22;5066670;28;20044;-58
2022/06/03 07:46:08;;;;;;;8.87;3.50;;;;;;;21.28;58.79;97306.31;5078464;28;20045;-57
2022/06/03 07:48:36;;;;;;;6.70;3.13;;;;;;;21.37;57.96;97290.59;5064410;28;20049;-55
2022/06/03 07:51:20;;;;;;;5.00;2.70;;;;;;;21.50;57.04;97297.06;5064954;28;20048;-57
2022/06/03 07:54:20;;;;;;;6.47;2.50;;;;;;;21.59;56.55;97290.75;5063245;28;20059;-58
2022/06/03 07:56:46;;;;;;;7.47;3.03;;;;;;;21.62;58.25;97290.88;5065051;28;20040;-58
2022/06/03 07:59:20;;;;;;;6.20;2.70;;;;;;;21.77;57.65;97284.06;5068716;28;20448;-58
2022/06/03 08:01:59;;;;;;;8.05;3.15;;;;;;;21.82;57.73;97281.13;5055415;28;20834;-58
2022/06/03 08:04:27;;;;;;;7.38;3.17;;;;;;;21.76;56.88;97279.72;5052659;28;20059;-58
2022/06/03 08:12:34;;;;;;;5.22;2.67;;;;;;;21.51;57.85;97273.06;5064400;28;20047;-58
2022/06/03 08:15:21;;;;;;;4.38;2.80;;;;;;;21.69;57.38;97268.34;5078432;28;20119;-58
2022/06/03 08:17:50;;;;;;;5.18;2.60;;;;;;;21.94;56.16;97268.63;5063102;28;20090;-58
2022/06/03 08:20:20;;;;;;;5.55;3.35;;;;;;;22.17;55.84;97271.13;5068958;28;20043;-58
2022/06/03 08:22:47;;;;;;;4.40;2.47;;;;;;;22.47;55.56;97268.38;5073709;28;20044;-59
2022/06/03 08:25:20;;;;;;;5.13;2.30;;;;;;;22.56;54.78;97260.09;5062593;28;20032;-64
2022/06/03 08:27:48;;;;;;;5.68;2.72;;;;;;;22.65;53.60;97257.25;5062610;28;20047;-64
2022/06/03 08:30:22;;;;;;;5.07;2.75;;;;;;;22.81;55.06;97258.28;5063893;28;20126;-65
2022/06/03 08:33:03;;;;;;;4.47;2.45;;;;;;;22.91;53.99;97253.50;5064440;28;20059;-64
2022/06/03 08:35:36;;;;;;;2.75;2.05;;;;;;;23.43;53.51;97251.47;5071901;28;20044;-64
2022/06/03 08:38:08;;;;;;;4.63;3.00;;;;;;;23.59;52.22;97246.13;5062737;28;20048;-64
2022/06/03 08:41:06;;;;;;;4.07;2.50;;;;;;;23.66;52.25;97237.25;5064387;28;20051;-64
2022/06/03 08:43:54;;;;;;;5.22;2.33;;;;;;;23.59;52.99;97230.31;5055697;28;20050;-64
2022/06/03 08:46:26;;;;;;;5.78;2.63;;;;;;;23.61;52.44;97228.03;5062726;28;20036;-65
2022/06/03 08:49:01;;;;;;;9.23;3.30;;;;;;;23.48;53.73;97224.41;5064628;28;20056;-64
2022/06/03 08:51:34;;;;;;;5.57;2.70;;;;;;;23.37;53.77;97232.34;5063450;28;20432;-64
2022/06/03 08:54:18;;;;;;;9.50;4.53;;;;;;;23.53;52.63;97228.94;5064392;28;20783;-64
2022/06/03 08:56:47;;;;;;;5.75;3.08;;;;;;;23.68;54.01;97221.94;5061578;28;20060;-63
2022/06/03 08:59:23;;;;;;;7.93;3.13;;;;;;;23.83;53.81;97223.22;5057745;28;20045;-64
2022/06/03 09:02:01;;;;;;;7.10;3.10;;;;;;;23.83;52.87;97220.47;5063402;28;20040;-64
2022/06/03 09:04:48;;;;;;;5.25;3.10;;;;;;;23.83;53.60;97214.13;5064593;28;20072;-64
2022/06/03 09:07:31;;;;;;;5.55;3.08;;;;;;;24.00;52.76;97213.13;5061790;28;20470;-64
2022/06/03 09:10:25;;;;;;;6.47;3.53;;;;;;;24.06;52.69;97202.63;5064601;28;20048;-64
2022/06/03 09:12:58;;;;;;;7.80;2.85;;;;;;;24.32;51.77;97196.75;5061886;28;20041;-64
2022/06/03 09:15:33;;;;;;;5.55;2.75;;;;;;;24.64;50.65;97210.78;5063655;28;20052;-64
2022/06/03 09:18:23;;;;;;;5.30;2.92;;;;;;;24.58;49.84;97203.84;5050822;28;20400;-65
2022/06/03 09:21:05;;;;;;;5.55;2.58;;;;;;;24.77;49.70;97200.47;5067575;28;20048;-64
2022/06/03 09:23:39;;;;;;;6.65;2.83;;;;;;;24.74;49.36;97195.66;5070622;28;20053;-64
2022/06/03 09:26:20;;;;;;;4.55;2.90;;;;;;;24.62;49.34;97209.53;5050470;28;20048;-64
2022/06/03 09:28:49;;;;;;;5.05;2.92;;;;;;;24.76;49.56;97209.16;5070021;28;20124;-64
2022/06/03 09:31:18;;;;;;;5.20;3.30;;;;;;;24.65;49.48;97211.56;5064586;28;20050;-64
2022/06/03 09:33:53;;;;;;;4.95;3.33;;;;;;;24.61;49.48;97207.91;5064504;28;20851;-64
2022/06/03 09:36:23;;;;;;;4.45;3.00;;;;;;;24.52;49.99;97203.31;5061540;28;20056;-64
2022/06/03 09:38:50;;;;;;;5.88;2.90;;;;;;;24.55;49.91;97204.56;5063236;28;20045;-64
2022/06/03 09:41:21;;;;;;;4.72;2.65;;;;;;;24.67;49.82;97198.19;5062534;28;20056;-64
2022/06/03 09:43:53;;;;;;;9.32;2.53;;;;;;;24.74;49.19;97206.72;5062529;28;20514;-64
2022/06/03 09:46:24;;;;;;;10.38;3.40;;;;;;;24.48;49.44;97207.94;5065378;28;20051;-64
2022/06/03 09:48:51;;;;;;;7.50;3.60;;;;;;;24.90;48.07;97217.06;5065528;28;20713;-64
2022/06/03 09:54:31;;;;;;;7.47;3.17;;;;;;;25.50;47.01;97205.25;5065041;28;20071;-64
2022/06/03 09:57:12;;;;;;;5.25;2.83;;;;;;;25.63;46.42;97210.75;5059559;28;20582;-64
2022/06/03 09:59:40;;;;;;;;;;;;;;;25.87;46.02;97212.56;5061141;28;20504;-63
2022/06/03 10:02:08;;;;;;;8.77;3.90;;;;;;;25.94;45.58;97215.53;5062262;28;20632;-64
2022/06/03 10:04:35;;;;;;;7.00;4.03;;;;;;;26.13;44.73;97216.75;5063101;28;20045;-64
2022/06/03 10:07:02;;;;;;;6.05;3.53;;;;;;;26.65;44.41;97215.97;5061872;28;20693;-64
2022/06/03 10:12:49;;;;;;;5.55;3.03;;;;;;;27.21;42.59;97223.13;5056735;28;20496;-64
2022/06/03 10:15:41;;;;;;;5.78;3.13;;;;;;;27.01;42.99;97230.66;5062355;28;20043;-64
2022/06/03 10:18:34;;;;;;;4.97;3.40;;;;;;;27.18;42.80;97228.59;5059873;28;20052;-63
2022/06/03 10:21:12;;;;;;;6.68;3.55;;;;;;;27.61;41.85;97226.69;5061834;28;20530;-63
2022/06/03 10:23:52;;;;;;;4.00;2.65;;;;;;;26.87;42.79;97223.59;5076798;28;20157;-64
2022/06/03 10:26:26;;;;;;;6.38;3.00;;;;;;;26.57;43.66;97228.91;5054535;28;20072;-64
2022/06/03 10:28:56;;;;;;;7.75;2.85;;;;;;;26.64;43.34;97220.72;5055459;28;20051;-63
2022/06/03 10:31:34;;;;;;;7.32;3.17;;;;;;;26.48;43.26;97226.31;5059747;28;20045;-63
2022/06/03 10:34:09;;;;;;;4.82;2.50;;;;;;;26.72;42.28;97222.50;5064176;28;20044;-63
2022/06/03 10:36:40;;;;;;;6.55;3.33;;;;;;;27.06;42.84;97227.59;5053464;28;20095;-64
2022/06/03 10:39:09;;;;;;;4.35;2.45;;;;;;;26.94;42.06;97224.94;5060785;28;20043;-63
2022/06/03 10:41:40;;;;;;;4.13;2.75;;;;;;;27.26;41.38;97213.69;5058987;28;20048;-64
2022/06/03 10:44:14;;;;;;;5.82;3.08;;;;;;;26.54;44.15;97219.34;5058786;28;20041;-64
2022/06/03 10:47:02;;;;;;;5.45;2.95;;;;;;;26.93;44.26;97215.00;5065713;28;20044;-64
2022/06/03 10:49:32;;;;;;;5.82;4.05;;;;;;;26.45;45.37;97210.38;5062811;28;20518;-63
2022/06/03 11:03:25;;;;;;;5.43;2.95;;;;;;;25.35;47.33;97237.31;5066146;28;20053;-64
2022/06/03 11:05:52;;;;;;;4.68;2.88;;;;;;;24.93;48.06;97255.16;5061234;28;20053;-64
2022/06/03 11:08:19;;;;;;;6.90;3.30;;;;;;;24.84;48.52;97254.44;5069493;28;20044;-64
2022/06/03 11:10:52;;;;;;;5.95;3.35;;;;;;;24.84;48.10;97260.81;5064534;28;20479;-64
2022/06/03 11:13:31;;;;;;;4.03;2.80;;;;;;;24.59;48.94;97280.22;5059405;28;20055;-64
2022/06/03 11:16:23;;;;;;;4.97;3.00;;;;;;;24.52;48.97;97266.97;5054495;28;20056;-63
2022/06/03 11:18:50;;;;;;;5.47;2.97;;;;;;;24.38;49.60;97261.78;5060605;28;20041;-63
2022/06/03 11:21:26;;;;;;;5.78;3.15;;;;;;;24.23;50.36;97263.28;5062023;28;20044;-63
2022/06/03 11:23:56;;;;;;;4.53;3.33;;;;;;;24.13;50.51;97269.25;5061598;28;20037;-63
2022/06/03 11:26:28;;;;;;;4.38;2.88;;;;;;;24.09;51.28;97263.59;5068020;28;20045;-63
2022/06/03 11:29:11;;;;;;;5.50;3.28;;;;;;;23.94;51.66;97256.78;5065781;28;20044;-64
2022/06/03 11:31:44;;;;;;;5.25;3.08;;;;;;;23.94;52.67;97248.47;5075281;28;20051;-63
2022/06/03 11:34:22;;;;;;;5.85;3.45;;;;;;;23.68;53.48;97243.25;5070137;28;20045;-63
2022/06/03 11:36:56;;;;;;;6.13;3.65;;;;;;;23.40;53.73;97247.41;5047719;28;20048;-63
2022/06/03 11:39:44;;;;;;;7.38;3.65;;;;;;;23.24;54.19;97249.97;5062324;28;20053;-63
2022/06/03 11:42:19;;;;;;;4.82;2.92;;;;;;;23.23;55.71;97243.66;5055527;28;20508;-63
2022/06/03 11:44:53;;;;;;;5.55;3.25;;;;;;;23.23;56.07;97240.91;5069006;28;20071;-63
2022/06/03 11:47:31;;;;;;;4.63;3.08;;;;;;;23.33;56.30;97222.28;5078396;28;20051;-63
2022/06/03 11:49:57;;;;;;;7.05;3.50;;;;;;;23.22;60.00;97199.81;5077359;28;20450;-63
2022/06/03 11:52:24;;;;;;;5.43;3.78;;;;;;;23.16;59.40;97179.88;5065470;28;20056;-63
2022/06/03 11:54:54;;;;;;;6.20;3.60;;;;;;;23.28;58.26;97170.03;5072929;28;20910;-63
2022/06/03 11:57:21;;;;;;;5.82;3.33;;;;;;;23.78;57.43;97170.94;5064494;28;20079;-63
2022/06/03 12:00:04;;;;;;;7.00;3.60;;;;;;;24.07;55.26;97151.69;5058799;28;20045;-63
2022/06/03 12:03:06;;;;;;;4.57;3.03;;;;;;;24.33;54.66;97159.66;5065666;28;20845;-64
2022/06/03 12:05:44;;;;;;;5.35;3.30;;;;;;;24.42;53.53;97156.75;5076103;28;20499;-63
2022/06/03 12:08:21;;;;;;;5.38;3.17;;;;;;;24.53;52.04;97171.72;5065423;28;20506;-64
2022/06/03 12:11:00;;;;;;;10.68;2.97;;;;;;;24.83;50.40;97180.88;5064258;28;20048;-63
2022/06/03 12:13:31;;;;;;;6.50;3.10;;;;;;;25.29;48.93;97194.41;5059088;28;20051;-63
2022/06/03 12:16:14;;;;;;;7.03;3.47;;;;;;;25.76;47.70;97200.41;5063844;28;20503;-63
2022/06/03 12:18:56;;;;;;;12.27;4.78;;;;;;;25.84;46.85;97203.00;5065245;28;20094;-63
2022/06/03 12:21:29;;;;;;;;;;;;;;;26.35;46.60;97207.00;5074327;28;20048;-64
2022/06/03 12:24:31;;;;;;;5.75;3.20;;;;;;;26.38;46.19;97197.16;5070490;28;19977;-64
2022/06/03 12:27:03;;;;;;;5.53;3.10;;;;;;;26.59;44.31;97204.34;5067562;28;20642;-63
2022/06/03 12:29:38;;;;;;;5.07;3.00;;;;;;;25.93;46.18;97197.28;5073214;28;20055;-64
2022/06/03 12:32:13;;;;;;;5.20;3.08;;;;;;;25.79;46.39;97205.25;5064838;28;20045;-63
2022/06/03 12:34:40;;;;;;;4.78;2.90;;;;;;;25.98;46.46;97185.91;5064450;28;20048;-63
2022/06/03 12:37:27;;;;;;;4.38;3.00;;;;;;;26.46;45.41;97187.81;5077015;28;20051;-63
2022/06/03 12:40:00;;;;;;;8.63;3.20;;;;;;;26.41;45.44;97176.19;5064423;28;20063;-63
2022/06/03 12:42:26;;;;;;;8.52;3.30;;;;;;;26.32;46.72;97190.28;5066098;28;20049;-63
2022/06/03 12:45:04;;;;;;;7.80;3.10;;;;;;;26.38;46.07;97197.16;5065007;28;20478;-63
2022/06/03 12:47:31;;;;;;;4.82;2.72;;;;;;;26.46;45.81;97200.91;5063563;28;20041;-64
2022/06/03 12:50:04;;;;;;;5.55;3.33;;;;;;;26.40;46.17;97200.38;5062941;28;20052;-63
2022/06/03 12:52:31;;;;;;;7.13;3.20;;;;;;;25.94;47.27;97209.97;5063727;28;20046;-63
2022/06/03 12:55:13;;;;;;;6.07;3.13;;;;;;;25.49;47.86;97208.38;5079907;28;20097;-63
2022/06/03 12:58:03;;;;;;;5.43;2.88;;;;;;;25.39;48.61;97210.53;5073703;28;20044;-63
2022/06/03 13:00:33;;;;;;;5.00;2.92;;;;;;;24.93;50.07;97219.16;5078238;28;20052;-64
2022/06/03 13:03:03;;;;;;;10.50;2.60;;;;;;;24.92;49.73;97228.63;5070008;28;20050;-64
2022/06/03 13:05:49;;;;;;;5.85;2.92;;;;;;;24.81;50.30;97244.88;5067639;28;20068;-64
2022/06/03 13:09:34;;;;;;;4.18;2.60;;;;;;;24.72;50.85;97245.00;5067899;28;20725;-64
2022/06/03 13:11:24;;;;;;;10.55;3.65;;;;;;;24.71;51.42;97254.47;5066009;28;20477;-64
2022/06/03 13:13:54;;;;;;;11.95;6.30;;;;;;;24.59;56.45;97248.97;5062590;28;20048;-64